createdAt,value
2023-03-19T00:01:48.529Z,11.48
2023-03-19T00:04:16.266Z,11.45
2023-03-19T00:06:43.385Z,11.42
2023-03-19T00:09:09.853Z,11.39
2023-03-19T00:11:36.376Z,11.36
2023-03-19T00:14:02.714Z,11.33
2023-03-19T00:16:29.105Z,11.29
2023-03-19T00:18:55.448Z,11.27
2023-03-19T00:21:24.203Z,11.25
2023-03-19T00:23:52.153Z,11.24
2023-03-19T00:26:18.998Z,11.24
2023-03-19T00:28:45.386Z,11.24
2023-03-19T00:31:15.143Z,11.25
2023-03-19T00:33:42.753Z,11.26
2023-03-19T00:36:10.843Z,11.27
2023-03-19T00:38:37.186Z,11.28
2023-03-19T00:41:05.145Z,11.29
2023-03-19T00:43:32.191Z,11.28
2023-03-19T00:45:58.823Z,11.29
2023-03-19T00:48:25.562Z,11.28
2023-03-19T00:50:52.085Z,11.29
2023-03-19T00:53:19.125Z,11.29
2023-03-19T00:55:46.200Z,11.29
2023-03-19T00:58:12.706Z,11.29
2023-03-19T01:00:39.292Z,11.28
2023-03-19T01:03:06.596Z,11.27
2023-03-19T01:05:36.231Z,11.27
2023-03-19T01:08:02.735Z,11.27
2023-03-19T01:10:32.960Z,11.26
2023-03-19T01:12:59.499Z,11.26
2023-03-19T01:15:26.155Z,11.25
2023-03-19T01:17:52.493Z,11.25
2023-03-19T01:20:19.103Z,11.24
2023-03-19T01:22:46.065Z,11.25
2023-03-19T01:25:14.221Z,11.27
2023-03-19T01:27:40.749Z,11.28
2023-03-19T01:30:07.820Z,11.29
2023-03-19T01:32:34.276Z,11.31
2023-03-19T01:35:01.010Z,11.34
2023-03-19T01:37:28.220Z,11.37
2023-03-19T01:39:54.662Z,11.39
2023-03-19T01:42:21.471Z,11.40
2023-03-19T01:44:47.859Z,11.42
2023-03-19T01:47:38.945Z,11.46
2023-03-19T01:50:06.194Z,11.49
2023-03-19T01:52:34.590Z,11.50
2023-03-19T01:55:05.003Z,11.52
2023-03-19T01:57:32.398Z,11.56
2023-03-19T02:00:01.653Z,11.59
2023-03-19T02:02:35.989Z,11.62
2023-03-19T02:05:12.585Z,11.65
2023-03-19T02:07:42.470Z,11.68
2023-03-19T02:10:12.397Z,11.71
2023-03-19T02:12:38.931Z,11.72
2023-03-19T02:15:07.218Z,11.75
2023-03-19T02:17:34.471Z,11.78
2023-03-19T02:20:08.681Z,11.82
2023-03-19T02:22:41.081Z,11.85
2023-03-19T02:25:16.573Z,11.88
2023-03-19T02:27:43.725Z,11.92
2023-03-19T02:30:32.626Z,11.96
2023-03-19T02:32:59.275Z,11.98
2023-03-19T02:35:30.879Z,12.02
2023-03-19T02:37:57.242Z,12.04
2023-03-19T02:40:29.360Z,12.07
2023-03-19T02:42:55.820Z,12.08
2023-03-19T02:45:24.834Z,12.09
2023-03-19T02:47:51.435Z,12.11
2023-03-19T02:50:17.776Z,12.11
2023-03-19T02:52:44.119Z,12.10
2023-03-19T02:55:10.551Z,12.10
2023-03-19T02:57:36.886Z,12.09
2023-03-19T03:00:05.074Z,12.08
2023-03-19T03:02:31.660Z,12.06
2023-03-19T03:04:58.038Z,12.04
2023-03-19T03:07:24.437Z,12.03
2023-03-19T03:09:51.080Z,12.01
2023-03-19T03:12:17.418Z,11.98
2023-03-19T03:14:43.800Z,11.97
2023-03-19T03:17:10.301Z,11.94
2023-03-19T03:19:36.725Z,11.94
2023-03-19T03:22:03.295Z,11.93
2023-03-19T03:24:29.905Z,11.92
2023-03-19T03:26:56.248Z,11.93
2023-03-19T03:29:22.737Z,11.93
2023-03-19T03:31:49.253Z,11.94
2023-03-19T03:34:15.838Z,11.94
2023-03-19T03:36:42.204Z,11.95
2023-03-19T03:39:08.652Z,11.94
2023-03-19T03:41:35.054Z,11.95
2023-03-19T03:44:01.400Z,11.95
2023-03-19T03:46:28.001Z,11.94
2023-03-19T03:48:54.448Z,11.94
2023-03-19T03:51:22.115Z,11.92
2023-03-19T03:53:48.584Z,11.91
2023-03-19T03:56:15.031Z,11.90
2023-03-19T03:58:41.591Z,11.88
2023-03-19T04:01:08.863Z,11.88
2023-03-19T04:03:35.547Z,11.88
2023-03-19T04:06:01.950Z,11.88
2023-03-19T04:08:28.332Z,11.89
2023-03-19T04:10:54.713Z,11.90
2023-03-19T04:13:21.500Z,11.91
2023-03-19T04:15:48.614Z,11.93
2023-03-19T04:18:15.615Z,11.94
2023-03-19T04:20:41.987Z,11.97
2023-03-19T04:23:08.384Z,11.98
2023-03-19T04:25:34.979Z,12.00
2023-03-19T04:28:01.368Z,12.02
2023-03-19T04:30:28.121Z,12.03
2023-03-19T04:32:54.724Z,12.06
2023-03-19T04:35:21.473Z,12.08
2023-03-19T04:37:48.737Z,12.11
2023-03-19T04:40:16.945Z,12.12
2023-03-19T04:42:44.599Z,12.15
2023-03-19T04:45:11.457Z,12.17
2023-03-19T04:47:37.838Z,12.18
2023-03-19T04:50:05.597Z,12.20
2023-03-19T04:52:33.280Z,12.22
2023-03-19T04:54:59.592Z,12.23
2023-03-19T04:57:25.918Z,12.24
2023-03-19T04:59:52.319Z,12.27
2023-03-19T05:02:19.212Z,12.27
2023-03-19T05:04:45.667Z,12.29
2023-03-19T05:07:12.431Z,12.30
2023-03-19T05:09:39.057Z,12.32
2023-03-19T05:12:05.953Z,12.33
2023-03-19T05:14:32.524Z,12.35
2023-03-19T05:16:58.907Z,12.34
2023-03-19T05:19:25.637Z,12.35
2023-03-19T05:21:52.005Z,12.35
2023-03-19T05:24:18.348Z,12.35
2023-03-19T05:26:44.698Z,12.34
2023-03-19T05:29:11.914Z,12.36
2023-03-19T05:31:38.596Z,12.36
2023-03-19T05:34:05.083Z,12.36
2023-03-19T05:36:31.459Z,12.35
2023-03-19T05:38:57.880Z,12.35
2023-03-19T05:41:24.340Z,12.34
2023-03-19T05:43:51.208Z,12.34
2023-03-19T05:46:17.642Z,12.33
2023-03-19T05:48:44.057Z,12.32
2023-03-19T05:51:11.543Z,12.33
2023-03-19T05:53:38.041Z,12.32
2023-03-19T05:56:04.651Z,12.34
2023-03-19T05:58:31.000Z,12.34
2023-03-19T06:00:57.728Z,12.35
2023-03-19T06:03:24.901Z,12.35
2023-03-19T06:05:51.747Z,12.37
2023-03-19T06:08:18.822Z,12.37
2023-03-19T06:10:45.644Z,12.38
2023-03-19T06:13:12.093Z,12.39
2023-03-19T06:15:38.750Z,12.41
2023-03-19T06:18:05.248Z,12.42
2023-03-19T06:20:32.013Z,12.43
2023-03-19T06:22:58.578Z,12.44
2023-03-19T06:25:24.964Z,12.45
2023-03-19T06:27:51.400Z,12.48
2023-03-19T06:30:17.846Z,12.48
2023-03-19T06:32:44.340Z,12.50
2023-03-19T06:35:11.206Z,12.52
2023-03-19T06:37:37.712Z,12.54
2023-03-19T06:40:05.147Z,12.55
2023-03-19T06:42:31.592Z,12.58
2023-03-19T06:44:57.945Z,12.60
2023-03-19T06:47:24.367Z,12.63
2023-03-19T06:49:51.318Z,12.66
2023-03-19T06:52:17.635Z,12.70
2023-03-19T06:54:44.005Z,12.73
2023-03-19T06:57:10.388Z,12.78
2023-03-19T06:59:36.787Z,12.83
2023-03-19T07:02:03.598Z,12.86
2023-03-19T07:04:30.423Z,12.90
2023-03-19T07:06:56.845Z,12.95
2023-03-19T07:09:23.441Z,13.01
2023-03-19T07:11:49.753Z,13.05
2023-03-19T07:14:16.436Z,13.13
2023-03-19T07:16:42.806Z,13.18
2023-03-19T07:19:09.174Z,13.28
2023-03-19T07:21:35.919Z,13.36
2023-03-19T07:24:02.385Z,13.44
2023-03-19T07:26:28.736Z,13.52
2023-03-19T07:28:55.563Z,13.60
2023-03-19T07:31:22.124Z,13.68
2023-03-19T07:33:48.540Z,13.78
2023-03-19T07:36:14.956Z,13.89
2023-03-19T07:38:41.359Z,14.00
2023-03-19T07:41:07.927Z,14.11
2023-03-19T07:43:34.355Z,14.23
2023-03-19T07:46:01.442Z,14.31
2023-03-19T07:48:27.960Z,14.39
2023-03-19T07:50:54.393Z,14.46
2023-03-19T07:53:20.989Z,14.52
2023-03-19T07:55:47.982Z,14.57
2023-03-19T07:58:14.801Z,14.60
2023-03-19T08:00:41.433Z,14.64
2023-03-19T08:03:08.084Z,14.66
2023-03-19T08:05:34.490Z,14.69
2023-03-19T08:08:01.186Z,14.71
2023-03-19T08:10:27.577Z,14.76
2023-03-19T08:12:54.145Z,14.79
2023-03-19T08:15:20.589Z,14.83
2023-03-19T08:17:47.005Z,14.88
2023-03-19T08:20:18.446Z,14.95
2023-03-19T08:22:49.568Z,15.02
2023-03-19T08:25:15.985Z,15.07
2023-03-19T08:27:42.506Z,15.14
2023-03-19T08:30:09.769Z,15.21
2023-03-19T08:32:37.214Z,15.27
2023-03-19T08:35:04.502Z,15.32
2023-03-19T08:37:30.828Z,15.40
2023-03-19T08:39:57.449Z,15.46
2023-03-19T08:42:23.876Z,15.54
2023-03-19T08:44:50.509Z,15.61
2023-03-19T08:47:17.186Z,15.68
2023-03-19T08:49:43.587Z,15.76
2023-03-19T08:52:10.048Z,15.83
2023-03-19T08:54:36.847Z,15.90
2023-03-19T08:57:03.685Z,15.95
2023-03-19T08:59:32.575Z,15.99
2023-03-19T09:02:00.336Z,16.06
2023-03-19T09:04:26.747Z,16.12
2023-03-19T09:06:53.200Z,16.15
2023-03-19T09:09:21.033Z,16.17
2023-03-19T09:11:47.793Z,16.14
2023-03-19T09:14:16.519Z,16.10
2023-03-19T09:16:43.571Z,16.05
2023-03-19T09:19:10.055Z,16.00
2023-03-19T09:21:36.932Z,15.95
2023-03-19T09:24:04.263Z,15.93
2023-03-19T09:26:31.128Z,15.93
2023-03-19T09:28:58.718Z,15.95
2023-03-19T09:31:27.235Z,15.96
2023-03-19T09:33:54.828Z,15.99
2023-03-19T09:36:21.178Z,16.01
2023-03-19T09:38:47.573Z,16.04
2023-03-19T09:41:26.611Z,16.11
2023-03-19T09:44:05.035Z,16.15
2023-03-19T09:46:36.593Z,16.19
2023-03-19T09:49:12.614Z,16.26
2023-03-19T09:51:44.838Z,16.35
2023-03-19T09:54:31.846Z,16.45
2023-03-19T09:56:58.588Z,16.50
2023-03-19T09:59:27.159Z,16.56
2023-03-19T10:02:21.590Z,16.64
2023-03-19T10:05:22.497Z,16.67
2023-03-19T10:08:03.607Z,16.68
2023-03-19T10:11:08.301Z,16.66
2023-03-19T10:13:43.705Z,16.63
2023-03-19T10:16:19.189Z,16.64
2023-03-19T10:18:49.943Z,16.64
2023-03-19T10:21:48.332Z,16.65
2023-03-19T10:24:37.000Z,16.66
2023-03-19T10:27:15.162Z,16.70
2023-03-19T10:29:42.086Z,16.75
2023-03-19T10:32:28.161Z,16.82
2023-03-19T10:34:58.311Z,16.93
2023-03-19T10:37:28.208Z,17.02
2023-03-19T10:39:57.523Z,17.11
2023-03-19T10:42:32.928Z,17.22
2023-03-19T10:45:05.721Z,17.32
2023-03-19T10:47:39.010Z,17.45
2023-03-19T10:50:06.095Z,17.58
2023-03-19T10:52:35.678Z,17.69
2023-03-19T10:55:14.926Z,17.81
2023-03-19T10:57:43.416Z,17.87
2023-03-19T11:00:20.462Z,17.89
2023-03-19T11:02:49.443Z,17.87
2023-03-19T11:05:24.764Z,17.85
2023-03-19T11:08:03.805Z,17.80
2023-03-19T11:10:33.374Z,17.75
2023-03-19T11:13:05.014Z,17.69
2023-03-19T11:15:38.060Z,17.63
2023-03-19T11:18:29.349Z,17.60
2023-03-19T11:21:05.373Z,17.60
2023-03-19T11:23:40.195Z,17.66
2023-03-19T11:26:07.207Z,17.71
2023-03-19T11:28:37.546Z,17.80
2023-03-19T11:31:41.766Z,17.89
2023-03-19T11:34:33.913Z,17.94
2023-03-19T11:37:03.395Z,17.95
2023-03-19T11:40:08.344Z,17.94
2023-03-19T11:42:37.192Z,17.91
2023-03-19T11:45:09.469Z,17.89
2023-03-19T11:47:47.701Z,17.84
2023-03-19T11:50:36.763Z,17.81
2023-03-19T11:53:18.345Z,17.76
2023-03-19T11:56:17.497Z,17.73
2023-03-19T11:58:58.477Z,17.68
2023-03-19T12:01:46.742Z,17.65
2023-03-19T12:04:25.885Z,17.62
2023-03-19T12:07:05.226Z,17.60
2023-03-19T12:09:49.811Z,17.60
2023-03-19T12:12:27.032Z,17.62
2023-03-19T12:15:14.298Z,17.66
2023-03-19T12:18:12.858Z,17.69
2023-03-19T12:20:55.111Z,17.73
2023-03-19T12:23:59.187Z,17.78
2023-03-19T12:26:50.954Z,17.82
2023-03-19T12:29:27.457Z,17.88
2023-03-19T12:32:25.426Z,17.94
2023-03-19T12:34:55.189Z,18.03
2023-03-19T12:37:42.452Z,18.15
2023-03-19T12:40:13.928Z,18.27
2023-03-19T12:42:42.071Z,18.39
2023-03-19T12:45:27.354Z,18.55
2023-03-19T12:48:01.363Z,18.67
2023-03-19T12:50:31.186Z,18.77
2023-03-19T12:53:00.447Z,18.83
2023-03-19T12:55:42.878Z,18.92
2023-03-19T12:58:34.137Z,18.99
2023-03-19T13:01:09.740Z,19.03
2023-03-19T13:03:52.345Z,19.07
2023-03-19T13:06:43.437Z,19.11
2023-03-19T13:09:31.431Z,19.13
2023-03-19T13:12:10.570Z,19.14
2023-03-19T13:14:55.077Z,19.15
2023-03-19T13:17:46.796Z,19.16
2023-03-19T13:20:47.178Z,19.14
2023-03-19T13:23:22.469Z,19.12
2023-03-19T13:25:50.392Z,19.10
2023-03-19T13:28:28.126Z,19.07
2023-03-19T13:31:08.317Z,19.05
2023-03-19T13:33:37.602Z,19.00
2023-03-19T13:36:14.871Z,18.97
2023-03-19T13:38:46.759Z,18.93
2023-03-19T13:41:39.088Z,18.88
2023-03-19T13:44:29.328Z,18.81
2023-03-19T13:46:55.701Z,18.73
2023-03-19T13:49:26.413Z,18.68
2023-03-19T13:51:59.967Z,18.62
2023-03-19T13:54:38.842Z,18.55
2023-03-19T13:57:06.691Z,18.51
2023-03-19T13:59:33.306Z,18.48
2023-03-19T14:02:01.311Z,18.49
2023-03-19T14:04:37.112Z,18.52
2023-03-19T14:07:15.433Z,18.57
2023-03-19T14:09:46.143Z,18.59
2023-03-19T14:12:15.227Z,18.66
2023-03-19T14:14:49.023Z,18.73
2023-03-19T14:17:20.014Z,18.79
2023-03-19T14:19:46.907Z,18.86
2023-03-19T14:22:16.408Z,18.97
2023-03-19T14:24:57.754Z,19.08
2023-03-19T14:27:32.852Z,19.14
2023-03-19T14:30:09.372Z,19.22
2023-03-19T14:32:42.505Z,19.25
2023-03-19T14:35:16.522Z,19.23
2023-03-19T14:37:49.775Z,19.21
2023-03-19T14:40:20.854Z,19.19
2023-03-19T14:42:55.911Z,19.14
2023-03-19T14:45:49.794Z,19.13
2023-03-19T14:48:58.072Z,19.13
2023-03-19T14:51:51.193Z,19.15
2023-03-19T14:54:42.555Z,19.18
2023-03-19T14:57:16.928Z,19.22
2023-03-19T14:59:43.434Z,19.25
2023-03-19T15:02:19.599Z,19.30
2023-03-19T15:04:48.183Z,19.32
2023-03-19T15:07:28.663Z,19.37
2023-03-19T15:09:55.830Z,19.38
2023-03-19T15:12:27.968Z,19.41
2023-03-19T15:15:09.988Z,19.42
2023-03-19T15:17:39.509Z,19.41
2023-03-19T15:20:21.793Z,19.40
2023-03-19T15:23:01.226Z,19.38
2023-03-19T15:25:28.189Z,19.35
2023-03-19T15:28:13.659Z,19.34
2023-03-19T15:30:53.751Z,19.32
2023-03-19T15:33:39.454Z,19.32
2023-03-19T15:36:24.382Z,19.31
2023-03-19T15:39:02.457Z,19.31
2023-03-19T15:41:32.069Z,19.26
2023-03-19T15:44:00.309Z,19.25
2023-03-19T15:46:33.172Z,19.23
2023-03-19T15:49:10.914Z,19.23
2023-03-19T15:51:38.114Z,19.21
2023-03-19T15:54:05.546Z,19.18
2023-03-19T15:56:32.523Z,19.17
2023-03-19T15:58:59.972Z,19.15
2023-03-19T16:01:27.443Z,19.14
2023-03-19T16:04:01.008Z,19.13
2023-03-19T16:06:33.009Z,19.09
2023-03-19T16:09:22.975Z,19.05
2023-03-19T16:11:49.885Z,18.99
2023-03-19T16:14:29.926Z,18.98
2023-03-19T16:17:02.188Z,18.96
2023-03-19T16:19:36.264Z,18.96
2023-03-19T16:22:12.623Z,18.96
2023-03-19T16:24:42.127Z,18.94
2023-03-19T16:27:13.265Z,18.91
2023-03-19T16:29:41.959Z,18.85
2023-03-19T16:32:19.433Z,18.83
2023-03-19T16:34:49.044Z,18.78
2023-03-19T16:37:40.067Z,18.73
2023-03-19T16:40:12.469Z,18.69
2023-03-19T16:42:39.492Z,18.63
2023-03-19T16:45:14.705Z,18.62
2023-03-19T16:47:42.182Z,18.61
2023-03-19T16:50:09.559Z,18.62
2023-03-19T16:52:38.450Z,18.64
2023-03-19T16:55:12.745Z,18.66
2023-03-19T16:57:39.092Z,18.69
2023-03-19T17:00:06.024Z,18.68
2023-03-19T17:02:32.446Z,18.65
2023-03-19T17:04:58.867Z,18.61
2023-03-19T17:07:25.441Z,18.58
2023-03-19T17:09:51.817Z,18.53
2023-03-19T17:12:18.294Z,18.49
2023-03-19T17:14:44.741Z,18.43
2023-03-19T17:17:19.305Z,18.38
2023-03-19T17:19:46.918Z,18.31
2023-03-19T17:22:14.293Z,18.21
2023-03-19T17:24:40.797Z,18.13
2023-03-19T17:27:07.204Z,18.03
2023-03-19T17:29:33.800Z,17.92
2023-03-19T17:32:04.220Z,17.81
2023-03-19T17:34:31.957Z,17.67
2023-03-19T17:37:03.929Z,17.57
2023-03-19T17:39:31.417Z,17.41
2023-03-19T17:41:57.772Z,17.27
2023-03-19T17:44:24.364Z,17.16
2023-03-19T17:46:53.279Z,17.05
2023-03-19T17:49:32.385Z,16.95
2023-03-19T17:51:59.442Z,16.83
2023-03-19T17:54:27.112Z,16.74
2023-03-19T17:56:54.477Z,16.65
2023-03-19T17:59:20.987Z,16.57
2023-03-19T18:01:47.448Z,16.48
2023-03-19T18:04:17.475Z,16.42
2023-03-19T18:06:54.023Z,16.34
2023-03-19T18:09:28.084Z,16.27
2023-03-19T18:11:55.532Z,16.19
2023-03-19T18:14:21.891Z,16.13
2023-03-19T18:16:48.465Z,16.07
2023-03-19T18:19:28.370Z,16.01
2023-03-19T18:21:54.932Z,15.94
2023-03-19T18:24:21.366Z,15.88
2023-03-19T18:26:47.828Z,15.81
2023-03-19T18:29:14.197Z,15.74
2023-03-19T18:31:44.023Z,15.68
2023-03-19T18:34:13.774Z,15.63
2023-03-19T18:36:41.224Z,15.56
2023-03-19T18:39:13.536Z,15.50
2023-03-19T18:41:40.897Z,15.43
2023-03-19T18:44:08.034Z,15.34
2023-03-19T18:46:36.754Z,15.26
2023-03-19T18:49:07.136Z,15.19
2023-03-19T18:51:33.647Z,15.08
2023-03-19T18:54:00.356Z,14.99
2023-03-19T18:56:30.317Z,14.91
2023-03-19T18:58:58.602Z,14.85
2023-03-19T19:01:25.870Z,14.78
2023-03-19T19:03:52.739Z,14.73
2023-03-19T19:06:28.287Z,14.72
2023-03-19T19:09:00.763Z,14.69
2023-03-19T19:11:27.382Z,14.69
2023-03-19T19:13:57.507Z,14.67
2023-03-19T19:16:28.133Z,14.65
2023-03-19T19:18:54.655Z,14.62
2023-03-19T19:21:21.102Z,14.58
2023-03-19T19:23:47.446Z,14.53
2023-03-19T19:26:25.223Z,14.48
2023-03-19T19:28:52.953Z,14.40
2023-03-19T19:31:31.561Z,14.34
2023-03-19T19:34:00.005Z,14.26
2023-03-19T19:36:27.640Z,14.19
2023-03-19T19:38:55.221Z,14.12
2023-03-19T19:41:24.500Z,14.04
2023-03-19T19:43:53.446Z,13.98
2023-03-19T19:46:22.374Z,13.96
2023-03-19T19:48:49.473Z,13.89
2023-03-19T19:51:27.735Z,13.87
2023-03-19T19:53:54.368Z,13.83
2023-03-19T19:56:23.549Z,13.81
2023-03-19T19:58:53.426Z,13.80
2023-03-19T20:01:22.792Z,13.80
2023-03-19T20:03:50.430Z,13.78
2023-03-19T20:06:17.660Z,13.77
2023-03-19T20:08:44.798Z,13.77
2023-03-19T20:11:23.319Z,13.78
2023-03-19T20:13:55.471Z,13.78
2023-03-19T20:16:24.456Z,13.78
2023-03-19T20:18:54.667Z,13.76
2023-03-19T20:21:22.459Z,13.74
2023-03-19T20:23:53.100Z,13.71
2023-03-19T20:26:22.264Z,13.67
2023-03-19T20:28:49.380Z,13.61
2023-03-19T20:31:19.535Z,13.55
2023-03-19T20:33:45.995Z,13.48
2023-03-19T20:36:15.618Z,13.42
2023-03-19T20:38:42.563Z,13.35
2023-03-19T20:41:21.613Z,13.29
2023-03-19T20:43:49.139Z,13.21
2023-03-19T20:46:16.215Z,13.15
2023-03-19T20:48:42.526Z,13.08
2023-03-19T20:51:18.004Z,13.02
2023-03-19T20:53:44.320Z,12.94
2023-03-19T20:56:15.899Z,12.86
2023-03-19T20:58:42.360Z,12.79
2023-03-19T21:01:09.733Z,12.71
2023-03-19T21:03:36.480Z,12.65
2023-03-19T21:06:06.065Z,12.59
2023-03-19T21:08:47.596Z,12.55
2023-03-19T21:11:19.141Z,12.50
2023-03-19T21:13:46.368Z,12.47
2023-03-19T21:16:17.991Z,12.47
2023-03-19T21:18:44.712Z,12.42
2023-03-19T21:21:13.590Z,12.41
2023-03-19T21:23:45.266Z,12.39
2023-03-19T21:26:17.444Z,12.35
2023-03-19T21:28:45.618Z,12.30
2023-03-19T21:31:20.415Z,12.29
2023-03-19T21:33:48.440Z,12.25
2023-03-19T21:36:15.255Z,12.22
2023-03-19T21:38:41.861Z,12.18
2023-03-19T21:41:22.356Z,12.13
2023-03-19T21:43:56.178Z,12.08
2023-03-19T21:46:26.546Z,12.03
2023-03-19T21:48:57.263Z,11.97
2023-03-19T21:51:24.994Z,11.90
2023-03-19T21:53:51.849Z,11.85
2023-03-19T21:56:22.075Z,11.80
2023-03-19T21:58:51.195Z,11.75
2023-03-19T22:01:24.249Z,11.72
2023-03-19T22:03:55.490Z,11.67
2023-03-19T22:06:22.481Z,11.62
2023-03-19T22:08:48.874Z,11.58
2023-03-19T22:11:24.249Z,11.54
2023-03-19T22:13:50.887Z,11.50
2023-03-19T22:16:20.402Z,11.45
2023-03-19T22:18:47.380Z,11.41
2023-03-19T22:21:16.330Z,11.38
2023-03-19T22:23:42.664Z,11.34
2023-03-19T22:26:33.796Z,11.29
2023-03-19T22:29:19.324Z,11.23
2023-03-19T22:31:48.881Z,11.16
2023-03-19T22:34:17.484Z,11.11
2023-03-19T22:36:44.330Z,11.05
2023-03-19T22:39:10.848Z,11.01
2023-03-19T22:41:40.076Z,10.96
2023-03-19T22:44:19.239Z,10.92
2023-03-19T22:46:46.118Z,10.88
2023-03-19T22:49:15.648Z,10.86
2023-03-19T22:51:43.526Z,10.82
2023-03-19T22:54:11.878Z,10.80
2023-03-19T22:56:38.504Z,10.77
2023-03-19T22:59:05.168Z,10.74
2023-03-19T23:01:36.317Z,10.71
2023-03-19T23:04:24.531Z,10.69
2023-03-19T23:06:52.709Z,10.66
2023-03-19T23:09:29.369Z,10.63
2023-03-19T23:11:57.703Z,10.58
2023-03-19T23:14:31.590Z,10.51
2023-03-19T23:17:01.942Z,10.46
2023-03-19T23:19:31.350Z,10.41
2023-03-19T23:21:59.698Z,10.36
2023-03-19T23:24:27.752Z,10.29
2023-03-19T23:26:55.848Z,10.23
2023-03-19T23:29:34.299Z,10.18
2023-03-19T23:32:00.762Z,10.14
2023-03-19T23:34:28.540Z,10.10
2023-03-19T23:36:56.177Z,10.07
2023-03-19T23:39:23.864Z,10.05
2023-03-19T23:41:54.347Z,10.04
2023-03-19T23:44:21.888Z,10.02
2023-03-19T23:46:50.760Z,10.00
2023-03-19T23:49:24.756Z,9.99
2023-03-19T23:51:51.483Z,9.96
2023-03-19T23:54:28.572Z,9.93
2023-03-19T23:57:01.066Z,9.92
2023-03-19T23:59:31.461Z,9.89
